sensor_id;sensor_type;location;lat;lon;timestamp;temperature;humidity
10030;DHT22;5055;52.054;8.524;2022-08-05T00:00:36;21.80;97.00
10030;DHT22;5055;52.054;8.524;2022-08-05T00:03:16;21.80;97.00
10030;DHT22;5055;52.054;8.524;2022-08-05T00:05:44;21.80;97.00
10030;DHT22;5055;52.054;8.524;2022-08-05T00:08:35;21.80;97.00
10030;DHT22;5055;52.054;8.524;2022-08-05T00:11:06;21.70;97.00
10030;DHT22;5055;52.054;8.524;2022-08-05T00:13:55;21.70;97.00
10030;DHT22;5055;52.054;8.524;2022-08-05T00:16:23;21.60;97.00
10030;DHT22;5055;52.054;8.524;2022-08-05T00:19:02;21.60;97.00
10030;DHT22;5055;52.054;8.524;2022-08-05T00:21:31;21.60;97.00
10030;DHT22;5055;52.054;8.524;2022-08-05T00:24:04;21.50;97.00
10030;DHT22;5055;52.054;8.524;2022-08-05T00:26:37;21.50;97.00
10030;DHT22;5055;52.054;8.524;2022-08-05T00:29:18;21.40;97.00
10030;DHT22;5055;52.054;8.524;2022-08-05T00:31:48;21.40;97.00
10030;DHT22;5055;52.054;8.524;2022-08-05T00:34:37;21.40;97.00
10030;DHT22;5055;52.054;8.524;2022-08-05T00:37:25;21.30;97.00
10030;DHT22;5055;52.054;8.524;2022-08-05T00:40:15;21.30;97.00
10030;DHT22;5055;52.054;8.524;2022-08-05T00:42:55;21.30;97.00
10030;DHT22;5055;52.054;8.524;2022-08-05T00:45:24;21.20;97.00
10030;DHT22;5055;52.054;8.524;2022-08-05T00:48:10;21.20;97.00
10030;DHT22;5055;52.054;8.524;2022-08-05T00:50:40;21.10;97.00
10030;DHT22;5055;52.054;8.524;2022-08-05T00:53:12;21.10;97.00
10030;DHT22;5055;52.054;8.524;2022-08-05T00:56:05;21.10;97.00
10030;DHT22;5055;52.054;8.524;2022-08-05T00:58:35;21.00;97.00
10030;DHT22;5055;52.054;8.524;2022-08-05T01:01:04;20.90;97.00
10030;DHT22;5055;52.054;8.524;2022-08-05T01:03:35;20.90;97.00
10030;DHT22;5055;52.054;8.524;2022-08-05T01:06:05;20.70;97.00
10030;DHT22;5055;52.054;8.524;2022-08-05T01:08:41;20.50;97.00
10030;DHT22;5055;52.054;8.524;2022-08-05T01:11:17;20.40;97.00
10030;DHT22;5055;52.054;8.524;2022-08-05T01:14:03;20.10;97.00
10030;DHT22;5055;52.054;8.524;2022-08-05T01:16:40;19.90;97.00
10030;DHT22;5055;52.054;8.524;2022-08-05T01:19:21;19.80;97.00
10030;DHT22;5055;52.054;8.524;2022-08-05T01:25:11;19.70;97.00
10030;DHT22;5055;52.054;8.524;2022-08-05T01:28:06;19.40;97.00
10030;DHT22;5055;52.054;8.524;2022-08-05T01:30:46;19.30;97.00
10030;DHT22;5055;52.054;8.524;2022-08-05T01:33:24;19.30;97.00
10030;DHT22;5055;52.054;8.524;2022-08-05T01:36:08;19.30;97.00
10030;DHT22;5055;52.054;8.524;2022-08-05T01:38:44;19.30;97.00
10030;DHT22;5055;52.054;8.524;2022-08-05T01:41:19;19.30;97.00
10030;DHT22;5055;52.054;8.524;2022-08-05T01:43:53;19.30;97.00
10030;DHT22;5055;52.054;8.524;2022-08-05T01:46:23;19.30;97.00
10030;DHT22;5055;52.054;8.524;2022-08-05T01:49:17;19.30;97.00
10030;DHT22;5055;52.054;8.524;2022-08-05T01:51:53;19.20;97.00
10030;DHT22;5055;52.054;8.524;2022-08-05T01:54:34;19.20;97.00
10030;DHT22;5055;52.054;8.524;2022-08-05T01:57:28;19.20;97.00
10030;DHT22;5055;52.054;8.524;2022-08-05T02:00:33;19.20;97.00
10030;DHT22;5055;52.054;8.524;2022-08-05T02:03:06;19.30;97.00
10030;DHT22;5055;52.054;8.524;2022-08-05T02:05:54;19.30;97.00
10030;DHT22;5055;52.054;8.524;2022-08-05T02:08:26;19.30;97.00
10030;DHT22;5055;52.054;8.524;2022-08-05T02:11:01;19.30;97.00
10030;DHT22;5055;52.054;8.524;2022-08-05T02:13:37;19.30;97.00
10030;DHT22;5055;52.054;8.524;2022-08-05T02:16:24;19.20;97.00
10030;DHT22;5055;52.054;8.524;2022-08-05T02:19:00;19.30;97.00
10030;DHT22;5055;52.054;8.524;2022-08-05T02:21:35;19.30;97.00
10030;DHT22;5055;52.054;8.524;2022-08-05T02:24:18;19.20;97.00
10030;DHT22;5055;52.054;8.524;2022-08-05T02:26:51;19.20;97.00
10030;DHT22;5055;52.054;8.524;2022-08-05T02:29:23;19.20;97.00
10030;DHT22;5055;52.054;8.524;2022-08-05T02:32:17;19.20;97.00
10030;DHT22;5055;52.054;8.524;2022-08-05T02:34:58;19.20;97.00
10030;DHT22;5055;52.054;8.524;2022-08-05T02:37:43;19.20;97.00
10030;DHT22;5055;52.054;8.524;2022-08-05T02:40:20;19.20;97.00
10030;DHT22;5055;52.054;8.524;2022-08-05T02:42:52;19.10;97.00
10030;DHT22;5055;52.054;8.524;2022-08-05T02:45:22;19.10;97.00
10030;DHT22;5055;52.054;8.524;2022-08-05T02:47:56;19.10;97.00
10030;DHT22;5055;52.054;8.524;2022-08-05T02:50:39;19.10;97.00
10030;DHT22;5055;52.054;8.524;2022-08-05T02:53:11;19.00;97.00
10030;DHT22;5055;52.054;8.524;2022-08-05T02:55:46;19.00;97.00
10030;DHT22;5055;52.054;8.524;2022-08-05T02:58:28;19.00;97.00
10030;DHT22;5055;52.054;8.524;2022-08-05T03:01:00;18.90;97.00
10030;DHT22;5055;52.054;8.524;2022-08-05T03:03:31;18.90;97.00
10030;DHT22;5055;52.054;8.524;2022-08-05T03:06:21;18.80;97.00
10030;DHT22;5055;52.054;8.524;2022-08-05T03:09:11;18.80;97.00
10030;DHT22;5055;52.054;8.524;2022-08-05T03:11:43;18.70;97.00
10030;DHT22;5055;52.054;8.524;2022-08-05T03:14:23;18.70;97.00
10030;DHT22;5055;52.054;8.524;2022-08-05T03:16:52;18.60;97.00
10030;DHT22;5055;52.054;8.524;2022-08-05T03:19:22;18.60;97.00
10030;DHT22;5055;52.054;8.524;2022-08-05T03:22:00;18.50;97.00
10030;DHT22;5055;52.054;8.524;2022-08-05T03:24:44;18.50;97.00
10030;DHT22;5055;52.054;8.524;2022-08-05T03:27:13;18.50;97.00
10030;DHT22;5055;52.054;8.524;2022-08-05T03:29:42;18.40;97.00
10030;DHT22;5055;52.054;8.524;2022-08-05T03:32:31;18.40;97.00
10030;DHT22;5055;52.054;8.524;2022-08-05T03:35:02;18.40;97.00
10030;DHT22;5055;52.054;8.524;2022-08-05T03:37:31;18.30;97.00
10030;DHT22;5055;52.054;8.524;2022-08-05T03:40:12;18.30;97.00
10030;DHT22;5055;52.054;8.524;2022-08-05T03:42:58;18.30;97.00
10030;DHT22;5055;52.054;8.524;2022-08-05T03:45:46;18.30;97.00
10030;DHT22;5055;52.054;8.524;2022-08-05T03:48:24;18.30;97.00
10030;DHT22;5055;52.054;8.524;2022-08-05T03:51:00;18.30;97.00
10030;DHT22;5055;52.054;8.524;2022-08-05T03:53:54;18.30;97.00
10030;DHT22;5055;52.054;8.524;2022-08-05T03:56:45;18.30;97.00
10030;DHT22;5055;52.054;8.524;2022-08-05T03:59:22;18.30;97.00
10030;DHT22;5055;52.054;8.524;2022-08-05T04:01:58;18.30;97.00
10030;DHT22;5055;52.054;8.524;2022-08-05T04:05:05;18.30;97.00
10030;DHT22;5055;52.054;8.524;2022-08-05T04:07:38;18.40;97.00
10030;DHT22;5055;52.054;8.524;2022-08-05T04:10:25;18.30;97.00
10030;DHT22;5055;52.054;8.524;2022-08-05T04:13:02;18.40;97.00
10030;DHT22;5055;52.054;8.524;2022-08-05T04:15:30;18.40;97.00
10030;DHT22;5055;52.054;8.524;2022-08-05T04:18:03;18.40;97.00
10030;DHT22;5055;52.054;8.524;2022-08-05T04:20:33;18.40;97.00
10030;DHT22;5055;52.054;8.524;2022-08-05T04:23:03;18.40;97.00
10030;DHT22;5055;52.054;8.524;2022-08-05T04:25:38;18.40;97.00
10030;DHT22;5055;52.054;8.524;2022-08-05T04:28:26;18.40;97.00
10030;DHT22;5055;52.054;8.524;2022-08-05T04:30:58;18.40;97.00
10030;DHT22;5055;52.054;8.524;2022-08-05T04:33:27;18.40;97.00
10030;DHT22;5055;52.054;8.524;2022-08-05T04:36:16;18.40;97.00
10030;DHT22;5055;52.054;8.524;2022-08-05T04:39:06;18.40;97.00
10030;DHT22;5055;52.054;8.524;2022-08-05T04:41:37;18.40;97.00
10030;DHT22;5055;52.054;8.524;2022-08-05T04:44:06;18.30;97.00
10030;DHT22;5055;52.054;8.524;2022-08-05T04:46:36;18.40;97.00
10030;DHT22;5055;52.054;8.524;2022-08-05T04:49:05;18.30;97.00
10030;DHT22;5055;52.054;8.524;2022-08-05T04:51:41;18.30;97.00
10030;DHT22;5055;52.054;8.524;2022-08-05T04:54:11;18.30;97.00
10030;DHT22;5055;52.054;8.524;2022-08-05T04:56:41;18.30;97.00
10030;DHT22;5055;52.054;8.524;2022-08-05T04:59:10;18.30;97.00
10030;DHT22;5055;52.054;8.524;2022-08-05T05:01:53;18.30;97.00
10030;DHT22;5055;52.054;8.524;2022-08-05T05:04:41;18.20;97.00
10030;DHT22;5055;52.054;8.524;2022-08-05T05:07:15;18.20;97.00
10030;DHT22;5055;52.054;8.524;2022-08-05T05:09:51;18.20;97.00
10030;DHT22;5055;52.054;8.524;2022-08-05T05:12:19;18.20;97.00
10030;DHT22;5055;52.054;8.524;2022-08-05T05:14:48;18.20;97.00
10030;DHT22;5055;52.054;8.524;2022-08-05T05:17:17;18.20;97.00
10030;DHT22;5055;52.054;8.524;2022-08-05T05:19:52;18.20;97.00
10030;DHT22;5055;52.054;8.524;2022-08-05T05:22:22;18.10;97.00
10030;DHT22;5055;52.054;8.524;2022-08-05T05:24:54;18.10;97.00
10030;DHT22;5055;52.054;8.524;2022-08-05T05:27:40;18.10;97.00
10030;DHT22;5055;52.054;8.524;2022-08-05T05:30:19;18.00;97.00
10030;DHT22;5055;52.054;8.524;2022-08-05T05:32:58;18.00;97.00
10030;DHT22;5055;52.054;8.524;2022-08-05T05:35:42;18.00;97.00
10030;DHT22;5055;52.054;8.524;2022-08-05T05:38:12;18.00;97.00
10030;DHT22;5055;52.054;8.524;2022-08-05T05:40:54;17.90;97.00
10030;DHT22;5055;52.054;8.524;2022-08-05T05:43:23;17.90;97.00
10030;DHT22;5055;52.054;8.524;2022-08-05T05:46:11;17.90;97.00
10030;DHT22;5055;52.054;8.524;2022-08-05T05:48:43;17.90;97.00
10030;DHT22;5055;52.054;8.524;2022-08-05T05:51:21;17.90;97.00
10030;DHT22;5055;52.054;8.524;2022-08-05T05:53:51;17.90;97.00
10030;DHT22;5055;52.054;8.524;2022-08-05T05:56:29;17.90;97.00
10030;DHT22;5055;52.054;8.524;2022-08-05T05:59:02;17.90;97.00
10030;DHT22;5055;52.054;8.524;2022-08-05T06:01:32;18.00;97.00
10030;DHT22;5055;52.054;8.524;2022-08-05T06:04:06;18.00;97.00
10030;DHT22;5055;52.054;8.524;2022-08-05T06:06:38;18.00;97.00
10030;DHT22;5055;52.054;8.524;2022-08-05T06:09:08;18.10;97.00
10030;DHT22;5055;52.054;8.524;2022-08-05T06:11:53;18.10;97.00
10030;DHT22;5055;52.054;8.524;2022-08-05T06:14:28;18.10;97.00
10030;DHT22;5055;52.054;8.524;2022-08-05T06:16:56;18.10;97.00
10030;DHT22;5055;52.054;8.524;2022-08-05T06:19:28;18.10;97.00
10030;DHT22;5055;52.054;8.524;2022-08-05T06:22:01;18.10;97.00
10030;DHT22;5055;52.054;8.524;2022-08-05T06:24:33;18.10;97.00
10030;DHT22;5055;52.054;8.524;2022-08-05T06:27:04;18.10;97.00
10030;DHT22;5055;52.054;8.524;2022-08-05T06:29:52;18.10;97.00
10030;DHT22;5055;52.054;8.524;2022-08-05T06:32:41;18.10;97.00
10030;DHT22;5055;52.054;8.524;2022-08-05T06:35:12;18.10;97.00
10030;DHT22;5055;52.054;8.524;2022-08-05T06:38:01;18.10;97.00
10030;DHT22;5055;52.054;8.524;2022-08-05T06:40:37;18.10;97.00
10030;DHT22;5055;52.054;8.524;2022-08-05T06:43:11;18.10;97.00
10030;DHT22;5055;52.054;8.524;2022-08-05T06:46:01;18.10;97.00
10030;DHT22;5055;52.054;8.524;2022-08-05T06:48:33;18.20;97.00
10030;DHT22;5055;52.054;8.524;2022-08-05T06:51:22;18.20;97.00
10030;DHT22;5055;52.054;8.524;2022-08-05T06:53:56;18.20;97.00
10030;DHT22;5055;52.054;8.524;2022-08-05T06:56:25;18.30;97.00
10030;DHT22;5055;52.054;8.524;2022-08-05T06:58:55;18.40;97.00
10030;DHT22;5055;52.054;8.524;2022-08-05T07:01:23;18.40;97.00
10030;DHT22;5055;52.054;8.524;2022-08-05T07:03:59;18.50;97.00
10030;DHT22;5055;52.054;8.524;2022-08-05T07:06:29;18.40;97.00
10030;DHT22;5055;52.054;8.524;2022-08-05T07:08:59;18.50;97.00
10030;DHT22;5055;52.054;8.524;2022-08-05T07:11:31;18.50;97.00
10030;DHT22;5055;52.054;8.524;2022-08-05T07:14:05;18.50;97.00
10030;DHT22;5055;52.054;8.524;2022-08-05T07:16:56;18.60;97.00
10030;DHT22;5055;52.054;8.524;2022-08-05T07:19:47;18.60;97.00
10030;DHT22;5055;52.054;8.524;2022-08-05T07:22:36;18.60;97.00
10030;DHT22;5055;52.054;8.524;2022-08-05T07:25:05;18.70;97.00
10030;DHT22;5055;52.054;8.524;2022-08-05T07:27:54;18.70;97.00
10030;DHT22;5055;52.054;8.524;2022-08-05T07:30:33;18.80;97.00
10030;DHT22;5055;52.054;8.524;2022-08-05T07:33:06;18.80;97.00
10030;DHT22;5055;52.054;8.524;2022-08-05T07:35:41;18.80;97.00
10030;DHT22;5055;52.054;8.524;2022-08-05T07:38:30;18.80;97.00
10030;DHT22;5055;52.054;8.524;2022-08-05T07:41:13;18.70;97.00
10030;DHT22;5055;52.054;8.524;2022-08-05T07:44:04;18.70;97.00
10030;DHT22;5055;52.054;8.524;2022-08-05T07:46:43;18.60;97.00
10030;DHT22;5055;52.054;8.524;2022-08-05T07:49:15;18.60;97.00
10030;DHT22;5055;52.054;8.524;2022-08-05T07:51:45;18.60;97.00
10030;DHT22;5055;52.054;8.524;2022-08-05T07:54:21;18.60;97.00
10030;DHT22;5055;52.054;8.524;2022-08-05T07:56:59;18.60;97.00
10030;DHT22;5055;52.054;8.524;2022-08-05T07:59:48;18.60;97.00
10030;DHT22;5055;52.054;8.524;2022-08-05T08:02:23;18.60;97.00
10030;DHT22;5055;52.054;8.524;2022-08-05T08:04:57;18.60;97.00
10030;DHT22;5055;52.054;8.524;2022-08-05T08:07:26;18.60;97.00
10030;DHT22;5055;52.054;8.524;2022-08-05T08:10:06;18.60;97.00
10030;DHT22;5055;52.054;8.524;2022-08-05T08:12:35;18.70;97.00
10030;DHT22;5055;52.054;8.524;2022-08-05T08:15:16;18.70;97.00
10030;DHT22;5055;52.054;8.524;2022-08-05T08:18:06;18.70;97.00
10030;DHT22;5055;52.054;8.524;2022-08-05T08:20:43;18.60;97.00
10030;DHT22;5055;52.054;8.524;2022-08-05T08:23:30;18.60;97.00
10030;DHT22;5055;52.054;8.524;2022-08-05T08:26:19;18.60;97.00
10030;DHT22;5055;52.054;8.524;2022-08-05T08:28:57;18.70;97.00
10030;DHT22;5055;52.054;8.524;2022-08-05T08:31:45;18.80;97.00
10030;DHT22;5055;52.054;8.524;2022-08-05T08:34:16;18.80;97.00
10030;DHT22;5055;52.054;8.524;2022-08-05T08:36:56;18.70;97.00
10030;DHT22;5055;52.054;8.524;2022-08-05T08:39:31;18.70;97.00
10030;DHT22;5055;52.054;8.524;2022-08-05T08:42:04;18.70;97.00
10030;DHT22;5055;52.054;8.524;2022-08-05T08:44:54;18.80;97.00
10030;DHT22;5055;52.054;8.524;2022-08-05T08:47:45;18.70;97.00
10030;DHT22;5055;52.054;8.524;2022-08-05T08:50:39;18.60;97.00
10030;DHT22;5055;52.054;8.524;2022-08-05T08:53:29;18.50;97.00
10030;DHT22;5055;52.054;8.524;2022-08-05T08:56:03;18.40;97.00
10030;DHT22;5055;52.054;8.524;2022-08-05T08:58:32;18.30;97.00
10030;DHT22;5055;52.054;8.524;2022-08-05T09:01:13;18.20;97.00
10030;DHT22;5055;52.054;8.524;2022-08-05T09:03:45;18.10;97.00
10030;DHT22;5055;52.054;8.524;2022-08-05T09:06:16;17.90;97.00
10030;DHT22;5055;52.054;8.524;2022-08-05T09:08:47;17.80;97.00
10030;DHT22;5055;52.054;8.524;2022-08-05T09:11:15;17.70;97.00
10030;DHT22;5055;52.054;8.524;2022-08-05T09:14:04;17.70;97.00
10030;DHT22;5055;52.054;8.524;2022-08-05T09:16:53;17.70;97.00
10030;DHT22;5055;52.054;8.524;2022-08-05T09:19:23;17.70;97.00
10030;DHT22;5055;52.054;8.524;2022-08-05T09:22:03;17.70;97.00
10030;DHT22;5055;52.054;8.524;2022-08-05T09:24:58;17.70;97.00
10030;DHT22;5055;52.054;8.524;2022-08-05T09:27:34;17.80;97.00
10030;DHT22;5055;52.054;8.524;2022-08-05T09:30:23;17.90;97.00
10030;DHT22;5055;52.054;8.524;2022-08-05T09:32:52;18.00;97.00
10030;DHT22;5055;52.054;8.524;2022-08-05T09:35:22;18.00;97.00
10030;DHT22;5055;52.054;8.524;2022-08-05T09:37:56;18.10;97.00
10030;DHT22;5055;52.054;8.524;2022-08-05T09:40:43;18.10;97.00
10030;DHT22;5055;52.054;8.524;2022-08-05T09:43:31;18.20;97.00
10030;DHT22;5055;52.054;8.524;2022-08-05T09:46:22;18.20;97.00
10030;DHT22;5055;52.054;8.524;2022-08-05T09:48:55;18.20;97.00
10030;DHT22;5055;52.054;8.524;2022-08-05T09:51:35;18.30;97.00
10030;DHT22;5055;52.054;8.524;2022-08-05T09:54:07;18.30;97.00
10030;DHT22;5055;52.054;8.524;2022-08-05T09:56:42;18.30;97.00
10030;DHT22;5055;52.054;8.524;2022-08-05T09:59:23;18.30;97.00
10030;DHT22;5055;52.054;8.524;2022-08-05T10:01:53;18.10;97.00
10030;DHT22;5055;52.054;8.524;2022-08-05T10:04:34;18.00;97.00
10030;DHT22;5055;52.054;8.524;2022-08-05T10:07:05;17.90;97.00
10030;DHT22;5055;52.054;8.524;2022-08-05T10:09:56;17.80;97.00
10030;DHT22;5055;52.054;8.524;2022-08-05T10:12:51;17.70;97.00
10030;DHT22;5055;52.054;8.524;2022-08-05T10:15:26;17.60;97.00
10030;DHT22;5055;52.054;8.524;2022-08-05T10:18:11;17.60;97.00
10030;DHT22;5055;52.054;8.524;2022-08-05T10:20:43;17.60;97.00
10030;DHT22;5055;52.054;8.524;2022-08-05T10:23:16;17.70;97.00
10030;DHT22;5055;52.054;8.524;2022-08-05T10:26:09;17.70;97.00
10030;DHT22;5055;52.054;8.524;2022-08-05T10:28:42;17.80;97.00
10030;DHT22;5055;52.054;8.524;2022-08-05T10:31:13;17.80;97.00
10030;DHT22;5055;52.054;8.524;2022-08-05T10:34:02;17.80;97.00
10030;DHT22;5055;52.054;8.524;2022-08-05T10:36:35;17.90;97.00
10030;DHT22;5055;52.054;8.524;2022-08-05T10:39:06;18.00;97.00
10030;DHT22;5055;52.054;8.524;2022-08-05T10:41:52;18.00;97.00
10030;DHT22;5055;52.054;8.524;2022-08-05T10:44:27;17.90;97.00
10030;DHT22;5055;52.054;8.524;2022-08-05T10:46:56;17.90;97.00
10030;DHT22;5055;52.054;8.524;2022-08-05T10:49:25;17.90;97.00
10030;DHT22;5055;52.054;8.524;2022-08-05T10:51:59;17.90;97.00
10030;DHT22;5055;52.054;8.524;2022-08-05T10:55:01;17.90;97.00
10030;DHT22;5055;52.054;8.524;2022-08-05T10:57:31;17.90;97.00
10030;DHT22;5055;52.054;8.524;2022-08-05T11:00:13;17.90;97.00
10030;DHT22;5055;52.054;8.524;2022-08-05T11:03:11;18.00;97.00
10030;DHT22;5055;52.054;8.524;2022-08-05T11:06:08;18.00;97.00
10030;DHT22;5055;52.054;8.524;2022-08-05T11:09:09;18.00;97.00
10030;DHT22;5055;52.054;8.524;2022-08-05T11:11:43;18.20;97.00
10030;DHT22;5055;52.054;8.524;2022-08-05T11:14:25;18.20;97.00
10030;DHT22;5055;52.054;8.524;2022-08-05T11:17:30;18.30;97.00
10030;DHT22;5055;52.054;8.524;2022-08-05T11:20:39;18.40;97.00
10030;DHT22;5055;52.054;8.524;2022-08-05T11:23:33;18.40;97.00
10030;DHT22;5055;52.054;8.524;2022-08-05T11:26:23;18.40;97.00
10030;DHT22;5055;52.054;8.524;2022-08-05T11:28:59;18.40;97.00
10030;DHT22;5055;52.054;8.524;2022-08-05T11:31:42;18.60;97.00
10030;DHT22;5055;52.054;8.524;2022-08-05T11:34:39;18.60;97.00
10030;DHT22;5055;52.054;8.524;2022-08-05T11:37:42;18.70;97.00
10030;DHT22;5055;52.054;8.524;2022-08-05T11:40:57;18.80;97.00
10030;DHT22;5055;52.054;8.524;2022-08-05T11:43:53;18.90;97.00
10030;DHT22;5055;52.054;8.524;2022-08-05T11:46:35;18.90;97.00
10030;DHT22;5055;52.054;8.524;2022-08-05T11:49:25;19.00;97.00
10030;DHT22;5055;52.054;8.524;2022-08-05T11:51:54;19.00;97.00
10030;DHT22;5055;52.054;8.524;2022-08-05T11:54:25;19.00;97.00
10030;DHT22;5055;52.054;8.524;2022-08-05T11:57:00;19.00;97.00
10030;DHT22;5055;52.054;8.524;2022-08-05T11:59:49;19.00;97.00
10030;DHT22;5055;52.054;8.524;2022-08-05T12:02:23;19.00;97.00
10030;DHT22;5055;52.054;8.524;2022-08-05T12:05:00;19.10;97.00
10030;DHT22;5055;52.054;8.524;2022-08-05T12:07:35;19.10;97.00
10030;DHT22;5055;52.054;8.524;2022-08-05T12:10:25;19.10;97.00
10030;DHT22;5055;52.054;8.524;2022-08-05T12:13:13;19.20;97.00
10030;DHT22;5055;52.054;8.524;2022-08-05T12:15:45;19.30;97.00
10030;DHT22;5055;52.054;8.524;2022-08-05T12:18:18;19.60;97.00
10030;DHT22;5055;52.054;8.524;2022-08-05T12:21:13;19.80;97.00
10030;DHT22;5055;52.054;8.524;2022-08-05T12:24:02;20.00;97.00
10030;DHT22;5055;52.054;8.524;2022-08-05T12:26:34;20.10;97.00
10030;DHT22;5055;52.054;8.524;2022-08-05T12:29:03;20.10;97.00
10030;DHT22;5055;52.054;8.524;2022-08-05T12:31:38;20.20;97.00
10030;DHT22;5055;52.054;8.524;2022-08-05T12:34:20;20.30;97.00
10030;DHT22;5055;52.054;8.524;2022-08-05T12:36:52;20.20;97.00
10030;DHT22;5055;52.054;8.524;2022-08-05T12:39:23;20.30;97.00
10030;DHT22;5055;52.054;8.524;2022-08-05T12:41:56;20.20;97.00
10030;DHT22;5055;52.054;8.524;2022-08-05T12:44:25;20.30;97.00
10030;DHT22;5055;52.054;8.524;2022-08-05T12:47:00;20.40;97.00
10030;DHT22;5055;52.054;8.524;2022-08-05T12:49:40;20.50;97.00
10030;DHT22;5055;52.054;8.524;2022-08-05T12:52:32;20.60;97.00
10030;DHT22;5055;52.054;8.524;2022-08-05T12:55:20;20.70;97.00
10030;DHT22;5055;52.054;8.524;2022-08-05T12:57:53;21.00;97.00
10030;DHT22;5055;52.054;8.524;2022-08-05T13:00:44;21.10;97.00
10030;DHT22;5055;52.054;8.524;2022-08-05T13:03:36;21.30;97.00
10030;DHT22;5055;52.054;8.524;2022-08-05T13:06:18;21.60;97.00
10030;DHT22;5055;52.054;8.524;2022-08-05T13:08:48;21.60;97.00
10030;DHT22;5055;52.054;8.524;2022-08-05T13:11:20;21.80;97.00
10030;DHT22;5055;52.054;8.524;2022-08-05T13:14:19;21.80;97.00
10030;DHT22;5055;52.054;8.524;2022-08-05T13:17:01;22.00;97.00
10030;DHT22;5055;52.054;8.524;2022-08-05T13:19:31;22.40;97.00
10030;DHT22;5055;52.054;8.524;2022-08-05T13:22:20;22.60;97.00
10030;DHT22;5055;52.054;8.524;2022-08-05T13:24:57;22.90;97.00
10030;DHT22;5055;52.054;8.524;2022-08-05T13:27:35;23.10;97.00
10030;DHT22;5055;52.054;8.524;2022-08-05T13:30:06;23.30;97.00
10030;DHT22;5055;52.054;8.524;2022-08-05T13:32:55;23.30;97.00
10030;DHT22;5055;52.054;8.524;2022-08-05T13:35:28;23.40;97.00
10030;DHT22;5055;52.054;8.524;2022-08-05T13:38:10;23.10;97.00
10030;DHT22;5055;52.054;8.524;2022-08-05T13:40:57;22.80;97.00
10030;DHT22;5055;52.054;8.524;2022-08-05T13:43:26;22.80;97.00
10030;DHT22;5055;52.054;8.524;2022-08-05T13:46:15;22.90;97.00
10030;DHT22;5055;52.054;8.524;2022-08-05T13:49:04;22.90;97.00
10030;DHT22;5055;52.054;8.524;2022-08-05T13:51:38;22.90;97.00
10030;DHT22;5055;52.054;8.524;2022-08-05T13:54:13;22.90;97.00
10030;DHT22;5055;52.054;8.524;2022-08-05T13:56:44;22.90;97.00
10030;DHT22;5055;52.054;8.524;2022-08-05T13:59:18;22.80;97.00
10030;DHT22;5055;52.054;8.524;2022-08-05T14:01:51;22.70;97.00
10030;DHT22;5055;52.054;8.524;2022-08-05T14:04:26;22.60;97.00
10030;DHT22;5055;52.054;8.524;2022-08-05T14:07:20;22.40;97.00
10030;DHT22;5055;52.054;8.524;2022-08-05T14:10:10;22.40;97.00
10030;DHT22;5055;52.054;8.524;2022-08-05T14:12:41;22.20;97.00
10030;DHT22;5055;52.054;8.524;2022-08-05T14:15:15;22.00;97.00
10030;DHT22;5055;52.054;8.524;2022-08-05T14:18:04;21.80;97.00
10030;DHT22;5055;52.054;8.524;2022-08-05T14:20:43;21.80;97.00
10030;DHT22;5055;52.054;8.524;2022-08-05T14:23:13;22.10;97.00
10030;DHT22;5055;52.054;8.524;2022-08-05T14:25:52;22.30;97.00
10030;DHT22;5055;52.054;8.524;2022-08-05T14:28:26;22.80;97.00
10030;DHT22;5055;52.054;8.524;2022-08-05T14:30:57;23.30;97.00
10030;DHT22;5055;52.054;8.524;2022-08-05T14:33:26;23.80;97.00
10030;DHT22;5055;52.054;8.524;2022-08-05T14:36:15;24.40;97.00
10030;DHT22;5055;52.054;8.524;2022-08-05T14:38:48;25.00;97.00
10030;DHT22;5055;52.054;8.524;2022-08-05T14:41:17;25.30;97.00
10030;DHT22;5055;52.054;8.524;2022-08-05T14:43:48;25.50;97.00
10030;DHT22;5055;52.054;8.524;2022-08-05T14:46:31;25.10;97.00
10030;DHT22;5055;52.054;8.524;2022-08-05T14:49:02;24.90;97.00
10030;DHT22;5055;52.054;8.524;2022-08-05T14:51:34;24.40;97.00
10030;DHT22;5055;52.054;8.524;2022-08-05T14:54:04;23.50;97.00
10030;DHT22;5055;52.054;8.524;2022-08-05T14:56:52;23.30;97.00
10030;DHT22;5055;52.054;8.524;2022-08-05T14:59:22;22.90;97.00
10030;DHT22;5055;52.054;8.524;2022-08-05T15:01:56;22.80;97.00
10030;DHT22;5055;52.054;8.524;2022-08-05T15:04:26;22.80;97.00
10030;DHT22;5055;52.054;8.524;2022-08-05T15:06:55;22.60;97.00
10030;DHT22;5055;52.054;8.524;2022-08-05T15:09:24;22.80;97.00
10030;DHT22;5055;52.054;8.524;2022-08-05T15:12:12;23.00;97.00
10030;DHT22;5055;52.054;8.524;2022-08-05T15:14:44;23.20;97.00
10030;DHT22;5055;52.054;8.524;2022-08-05T15:17:17;23.50;97.00
10030;DHT22;5055;52.054;8.524;2022-08-05T15:20:07;23.70;97.00
10030;DHT22;5055;52.054;8.524;2022-08-05T15:22:46;23.90;97.00
10030;DHT22;5055;52.054;8.524;2022-08-05T15:25:21;24.30;97.00
10030;DHT22;5055;52.054;8.524;2022-08-05T15:28:11;24.70;97.00
10030;DHT22;5055;52.054;8.524;2022-08-05T15:30:43;24.50;97.00
10030;DHT22;5055;52.054;8.524;2022-08-05T15:33:17;24.00;97.00
10030;DHT22;5055;52.054;8.524;2022-08-05T15:36:06;23.90;97.00
10030;DHT22;5055;52.054;8.524;2022-08-05T15:38:50;23.70;97.00
10030;DHT22;5055;52.054;8.524;2022-08-05T15:41:38;23.50;97.00
10030;DHT22;5055;52.054;8.524;2022-08-05T15:44:25;23.40;97.00
10030;DHT22;5055;52.054;8.524;2022-08-05T15:46:59;23.40;97.00
10030;DHT22;5055;52.054;8.524;2022-08-05T15:49:29;23.30;97.00
10030;DHT22;5055;52.054;8.524;2022-08-05T15:52:18;23.10;97.00
10030;DHT22;5055;52.054;8.524;2022-08-05T15:55:08;23.00;97.00
10030;DHT22;5055;52.054;8.524;2022-08-05T15:57:42;23.10;97.00
10030;DHT22;5055;52.054;8.524;2022-08-05T16:00:15;23.10;97.00
10030;DHT22;5055;52.054;8.524;2022-08-05T16:03:00;23.30;97.00
10030;DHT22;5055;52.054;8.524;2022-08-05T16:05:29;23.70;97.00
10030;DHT22;5055;52.054;8.524;2022-08-05T16:07:57;23.90;97.00
10030;DHT22;5055;52.054;8.524;2022-08-05T16:10:26;24.10;97.00
10030;DHT22;5055;52.054;8.524;2022-08-05T16:12:55;24.20;97.00
10030;DHT22;5055;52.054;8.524;2022-08-05T16:15:23;24.30;97.00
10030;DHT22;5055;52.054;8.524;2022-08-05T16:18:00;24.10;97.00
10030;DHT22;5055;52.054;8.524;2022-08-05T16:20:34;23.90;97.00
10030;DHT22;5055;52.054;8.524;2022-08-05T16:23:03;23.60;97.00
10030;DHT22;5055;52.054;8.524;2022-08-05T16:25:34;23.40;97.00
10030;DHT22;5055;52.054;8.524;2022-08-05T16:28:04;23.30;97.00
10030;DHT22;5055;52.054;8.524;2022-08-05T16:30:36;23.30;97.00
10030;DHT22;5055;52.054;8.524;2022-08-05T16:33:08;23.20;97.00
10030;DHT22;5055;52.054;8.524;2022-08-05T16:35:37;23.00;97.00
10030;DHT22;5055;52.054;8.524;2022-08-05T16:38:08;22.80;97.00
10030;DHT22;5055;52.054;8.524;2022-08-05T16:40:52;22.70;97.00
10030;DHT22;5055;52.054;8.524;2022-08-05T16:43:29;22.60;97.00
10030;DHT22;5055;52.054;8.524;2022-08-05T16:45:59;22.50;97.00
10030;DHT22;5055;52.054;8.524;2022-08-05T16:48:40;22.50;97.00
10030;DHT22;5055;52.054;8.524;2022-08-05T16:51:09;22.50;97.00
10030;DHT22;5055;52.054;8.524;2022-08-05T16:53:38;22.50;97.00
10030;DHT22;5055;52.054;8.524;2022-08-05T16:56:29;22.50;97.00
10030;DHT22;5055;52.054;8.524;2022-08-05T16:59:01;22.60;97.00